MSC Giovanna — 3FRB9 — position and weather

sailwx.info

Track history (hours):
 
Tides and Currents Weather Stations Pressure Air Temp Water Temp Dewpoint Dewpoint Depression Visibility Wind Speed Wind Dir Waves Ship Positions

MSC Giovanna

Last reported at 2014-Jul-31 02:34 UTC. Time now 2014-Aug-02 02:45 UTC.
Position N 36°25' E 023°03'.

Length 178 m; draft 8.2 m.

Type: Ship (hazmat cat A). MMSI: 357702000.

Date/timePositionNaut miles runAvg speedWind from/ knotsBaromVisibWave heightAir tempDewpointWater temp
2014-Jul-31 02:34N 36°25' E 023°03'1212.1
2014-Jul-31 01:33N 36°29' E 023°18'1514.8
2014-Jul-31 00:33N 36°42' E 023°26'1414.2
2014-Jul-30 23:33N 36°55' E 023°33'1414.1
2014-Jul-30 22:33N 37°09' E 023°36'1414.2
2014-Jul-30 21:33N 37°23' E 023°39'1414.2
2014-Jul-30 20:34N 37°37' E 023°42'1413.9
2014-Jul-30 19:34N 37°50' E 023°37'7 7.2
2014-Jul-30 18:31N 37°57' E 023°36'0 0.0
2014-Jul-30 17:31N 37°57' E 023°36'0 0.0
2014-Jul-30 16:32N 37°57' E 023°36'0 0.0
2014-Jul-30 15:31N 37°57' E 023°36'0 0.0
2014-Jul-30 14:31N 37°57' E 023°36'0 0.0
2014-Jul-30 13:32N 37°57' E 023°36'0 0.0
2014-Jul-30 12:29N 37°57' E 023°36'0 0.0
2014-Jul-30 11:31N 37°57' E 023°36'0 0.0
2014-Jul-30 10:33N 37°57' E 023°36'0 0.0
2014-Jul-30 09:32N 37°57' E 023°36'0 0.0
2014-Jul-30 08:32N 37°57' E 023°36'0 0.0
2014-Jul-30 07:31N 37°57' E 023°36'0 0.0
2014-Jul-30 06:33N 37°57' E 023°36'0 0.0
2014-Jul-30 05:33N 37°57' E 023°36'3 2.6
2014-Jul-30 04:33N 37°55' E 023°37'3 3.2
2014-Jul-30 03:33N 37°52' E 023°36'0 0.3
2014-Jul-30 02:33N 37°52' E 023°36'2 2.2
2014-Jul-30 01:33N 37°52' E 023°38'1111.3
2014-Jul-30 00:33N 37°42' E 023°45'1414.3
2014-Jul-29 23:33N 37°32' E 023°58'1414.2
2014-Jul-29 22:33N 37°22' E 024°11'1814.2
2014-Jul-29 21:16N 37°14' E 024°31'1114.4
2014-Jul-29 20:32N 37°14' E 024°44'1515.1
2014-Jul-29 19:33N 37°14' E 025°03'1515.0
2014-Jul-29 18:32N 37°15' E 025°22'1414.1
2014-Jul-29 17:33N 37°13' E 025°39'1413.8
2014-Jul-29 16:33N 37°07' E 025°55'1413.7
2014-Jul-29 15:33N 36°60' E 026°09'1414.0
2014-Jul-29 14:32N 36°52' E 026°24'1414.3
2014-Jul-29 13:33N 36°44' E 026°39'1414.4
2014-Jul-29 12:33N 36°37' E 026°54'5914.4
2014-Jul-29 08:27N 36°29' E 028°08'  
2014-Jul-24 20:28N 31°23' E 032°17'0 0.0
2014-Jul-24 19:30N 31°23' E 032°17'0 0.0
2014-Jul-24 18:22N 31°23' E 032°17'0 0.0
2014-Jul-24 17:30N 31°23' E 032°17'0 0.0
2014-Jul-24 16:06N 31°23' E 032°17'0 0.0
2014-Jul-24 15:29N 31°23' E 032°17'0 0.0
2014-Jul-24 14:05N 31°23' E 032°17'0 0.0
2014-Jul-24 13:21N 31°23' E 032°17'0 0.0
2014-Jul-24 12:32N 31°23' E 032°17'0 0.0
2014-Jul-24 11:06N 31°23' E 032°17'0 0.0
2014-Jul-24 10:32N 31°23' E 032°17'0 0.0
2014-Jul-24 09:24N 31°23' E 032°17'0 0.0
2014-Jul-24 08:30N 31°23' E 032°17'0 0.0
2014-Jul-24 07:31N 31°23' E 032°17'0 0.0
2014-Jul-24 06:31N 31°23' E 032°17'0 0.0
2014-Jul-24 05:31N 31°23' E 032°17'0 0.0
2014-Jul-24 04:33N 31°23' E 032°17'0 0.0
2014-Jul-24 03:33N 31°23' E 032°17'0 0.0
2014-Jul-24 01:12N 31°23' E 032°17'0 0.0
2014-Jul-23 23:18N 31°23' E 032°17'0 0.0
2014-Jul-23 22:33N 31°23' E 032°17'0 0.0
2014-Jul-23 21:21N 31°23' E 032°17'0 0.0
2014-Jul-23 20:30N 31°23' E 032°17'0 0.0
2014-Jul-23 19:09N 31°23' E 032°17'0 0.0
2014-Jul-23 18:30N 31°23' E 032°17'0 0.0
2014-Jul-23 17:30N 31°23' E 032°17'0 0.0
2014-Jul-23 15:30N 31°23' E 032°17'0 0.0
2014-Jul-23 14:11N 31°23' E 032°17'0 0.0
2014-Jul-23 13:32N 31°23' E 032°17'0 0.0
2014-Jul-23 12:27N 31°23' E 032°17'0 0.0
2014-Jul-23 09:12N 31°23' E 032°17'0 0.0
2014-Jul-23 08:15N 31°23' E 032°17'0 0.0
2014-Jul-23 07:15N 31°23' E 032°17'0 0.0
2014-Jul-23 06:10N 31°23' E 032°17'0 0.0
2014-Jul-23 05:10N 31°23' E 032°17'0 0.0
2014-Jul-23 04:25N 31°23' E 032°17'0 0.0
2014-Jul-23 03:10N 31°23' E 032°17'0 0.0
2014-Jul-23 01:28N 31°23' E 032°17'0 0.0
2014-Jul-23 00:31N 31°23' E 032°17'0 0.0
2014-Jul-22 23:33N 31°23' E 032°17'0 0.0
2014-Jul-22 22:30N 31°23' E 032°17'0 0.0
2014-Jul-22 21:33N 31°23' E 032°17'0 0.0
2014-Jul-22 20:27N 31°23' E 032°17'0 0.0
2014-Jul-22 19:33N 31°23' E 032°17'0 0.0
2014-Jul-22 18:33N 31°23' E 032°17'0 0.0
2014-Jul-22 17:33N 31°23' E 032°17'0 0.0
2014-Jul-22 16:31N 31°23' E 032°17'0 0.0
2014-Jul-22 15:31N 31°23' E 032°17'0 0.0
2014-Jul-22 14:31N 31°23' E 032°17'0 0.0
2014-Jul-22 13:28N 31°23' E 032°17'0 0.0
2014-Jul-22 12:33N 31°23' E 032°17'0 0.0
2014-Jul-22 11:21N 31°23' E 032°17'  
Track history (hours):
 
Tides and Currents Weather Stations Pressure Air Temp Water Temp Dewpoint Dewpoint Depression Visibility Wind Speed Wind Dir Waves Ship Positions

MSC Giovanna

Last reported at 2014-Jul-31 02:34 UTC. Time now 2014-Aug-02 02:45 UTC.
Position N 36°25' E 023°03'.

Length 178 m; draft 8.2 m.

Type: Ship (hazmat cat A). MMSI: 357702000.

Date/timePositionNaut miles runAvg speedWind from/ knotsBaromVisibWave heightAir tempDewpointWater temp
2014-Jul-31 02:34N 36°25' E 023°03'1212.1
2014-Jul-31 01:33N 36°29' E 023°18'1514.8
2014-Jul-31 00:33N 36°42' E 023°26'1414.2
2014-Jul-30 23:33N 36°55' E 023°33'1414.1
2014-Jul-30 22:33N 37°09' E 023°36'1414.2
2014-Jul-30 21:33N 37°23' E 023°39'1414.2
2014-Jul-30 20:34N 37°37' E 023°42'1413.9
2014-Jul-30 19:34N 37°50' E 023°37'7 7.2
2014-Jul-30 18:31N 37°57' E 023°36'0 0.0
2014-Jul-30 17:31N 37°57' E 023°36'0 0.0
2014-Jul-30 16:32N 37°57' E 023°36'0 0.0
2014-Jul-30 15:31N 37°57' E 023°36'0 0.0
2014-Jul-30 14:31N 37°57' E 023°36'0 0.0
2014-Jul-30 13:32N 37°57' E 023°36'0 0.0
2014-Jul-30 12:29N 37°57' E 023°36'0 0.0
2014-Jul-30 11:31N 37°57' E 023°36'0 0.0
2014-Jul-30 10:33N 37°57' E 023°36'0 0.0
2014-Jul-30 09:32N 37°57' E 023°36'0 0.0
2014-Jul-30 08:32N 37°57' E 023°36'0 0.0
2014-Jul-30 07:31N 37°57' E 023°36'0 0.0
2014-Jul-30 06:33N 37°57' E 023°36'0 0.0
2014-Jul-30 05:33N 37°57' E 023°36'3 2.6
2014-Jul-30 04:33N 37°55' E 023°37'3 3.2
2014-Jul-30 03:33N 37°52' E 023°36'0 0.3
2014-Jul-30 02:33N 37°52' E 023°36'2 2.2
2014-Jul-30 01:33N 37°52' E 023°38'1111.3
2014-Jul-30 00:33N 37°42' E 023°45'1414.3
2014-Jul-29 23:33N 37°32' E 023°58'1414.2
2014-Jul-29 22:33N 37°22' E 024°11'1814.2
2014-Jul-29 21:16N 37°14' E 024°31'1114.4
2014-Jul-29 20:32N 37°14' E 024°44'1515.1
2014-Jul-29 19:33N 37°14' E 025°03'1515.0
2014-Jul-29 18:32N 37°15' E 025°22'1414.1
2014-Jul-29 17:33N 37°13' E 025°39'1413.8
2014-Jul-29 16:33N 37°07' E 025°55'1413.7
2014-Jul-29 15:33N 36°60' E 026°09'1414.0
2014-Jul-29 14:32N 36°52' E 026°24'1414.3
2014-Jul-29 13:33N 36°44' E 026°39'1414.4
2014-Jul-29 12:33N 36°37' E 026°54'5914.4
2014-Jul-29 08:27N 36°29' E 028°08'  
2014-Jul-24 20:28N 31°23' E 032°17'0 0.0
2014-Jul-24 19:30N 31°23' E 032°17'0 0.0
2014-Jul-24 18:22N 31°23' E 032°17'0 0.0
2014-Jul-24 17:30N 31°23' E 032°17'0 0.0
2014-Jul-24 16:06N 31°23' E 032°17'0 0.0
2014-Jul-24 15:29N 31°23' E 032°17'0 0.0
2014-Jul-24 14:05N 31°23' E 032°17'0 0.0
2014-Jul-24 13:21N 31°23' E 032°17'0 0.0
2014-Jul-24 12:32N 31°23' E 032°17'0 0.0
2014-Jul-24 11:06N 31°23' E 032°17'0 0.0
2014-Jul-24 10:32N 31°23' E 032°17'0 0.0
2014-Jul-24 09:24N 31°23' E 032°17'0 0.0
2014-Jul-24 08:30N 31°23' E 032°17'0 0.0
2014-Jul-24 07:31N 31°23' E 032°17'0 0.0
2014-Jul-24 06:31N 31°23' E 032°17'0 0.0
2014-Jul-24 05:31N 31°23' E 032°17'0 0.0
2014-Jul-24 04:33N 31°23' E 032°17'0 0.0
2014-Jul-24 03:33N 31°23' E 032°17'0 0.0
2014-Jul-24 01:12N 31°23' E 032°17'0 0.0
2014-Jul-23 23:18N 31°23' E 032°17'0 0.0
2014-Jul-23 22:33N 31°23' E 032°17'0 0.0
2014-Jul-23 21:21N 31°23' E 032°17'0 0.0
2014-Jul-23 20:30N 31°23' E 032°17'0 0.0
2014-Jul-23 19:09N 31°23' E 032°17'0 0.0
2014-Jul-23 18:30N 31°23' E 032°17'0 0.0
2014-Jul-23 17:30N 31°23' E 032°17'0 0.0
2014-Jul-23 15:30N 31°23' E 032°17'0 0.0
2014-Jul-23 14:11N 31°23' E 032°17'0 0.0
2014-Jul-23 13:32N 31°23' E 032°17'0 0.0
2014-Jul-23 12:27N 31°23' E 032°17'0 0.0
2014-Jul-23 09:12N 31°23' E 032°17'0 0.0
2014-Jul-23 08:15N 31°23' E 032°17'0 0.0
2014-Jul-23 07:15N 31°23' E 032°17'0 0.0
2014-Jul-23 06:10N 31°23' E 032°17'0 0.0
2014-Jul-23 05:10N 31°23' E 032°17'0 0.0
2014-Jul-23 04:25N 31°23' E 032°17'0 0.0
2014-Jul-23 03:10N 31°23' E 032°17'0 0.0
2014-Jul-23 01:28N 31°23' E 032°17'0 0.0
2014-Jul-23 00:31N 31°23' E 032°17'0 0.0
2014-Jul-22 23:33N 31°23' E 032°17'0 0.0
2014-Jul-22 22:30N 31°23' E 032°17'0 0.0
2014-Jul-22 21:33N 31°23' E 032°17'0 0.0
2014-Jul-22 20:27N 31°23' E 032°17'0 0.0
2014-Jul-22 19:33N 31°23' E 032°17'0 0.0
2014-Jul-22 18:33N 31°23' E 032°17'0 0.0
2014-Jul-22 17:33N 31°23' E 032°17'0 0.0
2014-Jul-22 16:31N 31°23' E 032°17'0 0.0
2014-Jul-22 15:31N 31°23' E 032°17'0 0.0
2014-Jul-22 14:31N 31°23' E 032°17'0 0.0
2014-Jul-22 13:28N 31°23' E 032°17'0 0.0
2014-Jul-22 12:33N 31°23' E 032°17'0 0.0
2014-Jul-22 11:21N 31°23' E 032°17'  

Dump ship's entire track history